createdAt,value
2019-01-23T00:01:58.046Z,30.87
2019-01-23T00:04:28.666Z,30.37
2019-01-23T00:06:59.028Z,30.40
2019-01-23T00:09:29.646Z,31.27
2019-01-23T00:12:00.252Z,31.07
2019-01-23T00:14:30.560Z,31.07
2019-01-23T00:17:00.943Z,30.87
2019-01-23T00:19:31.364Z,30.30
2019-01-23T00:22:01.724Z,29.77
2019-01-23T00:24:32.499Z,30.63
2019-01-23T00:27:03.327Z,30.90
2019-01-23T00:29:33.641Z,30.43
2019-01-23T00:32:03.954Z,31.63
2019-01-23T00:34:34.316Z,30.93
2019-01-23T00:37:04.719Z,30.77
2019-01-23T00:39:35.050Z,31.57
2019-01-23T00:42:05.344Z,31.37
2019-01-23T00:44:35.661Z,30.87
2019-01-23T00:47:05.990Z,28.50
2019-01-23T00:49:36.262Z,29.57
2019-01-23T00:52:06.590Z,29.90
2019-01-23T00:54:37.443Z,30.17
2019-01-23T00:57:07.841Z,29.27
2019-01-23T00:59:38.186Z,29.63
2019-01-23T01:02:09.119Z,29.07
2019-01-23T01:04:39.425Z,30.13
2019-01-23T01:07:10.621Z,27.30
2019-01-23T01:09:40.998Z,25.53
2019-01-23T01:12:11.327Z,26.43
2019-01-23T01:14:42.502Z,26.10
2019-01-23T01:17:13.132Z,24.53
2019-01-23T01:19:47.728Z,24.77
2019-01-23T01:22:18.557Z,24.27
2019-01-23T01:25:09.443Z,26.17
2019-01-23T01:27:43.035Z,24.97
2019-01-23T01:30:15.985Z,25.30
2019-01-23T01:32:46.544Z,24.10
2019-01-23T01:35:17.071Z,26.37
2019-01-23T01:37:48.895Z,25.27
2019-01-23T01:40:19.542Z,24.20
2019-01-23T01:42:49.819Z,25.57
2019-01-23T01:45:20.120Z,26.07
2019-01-23T01:47:50.510Z,25.17
2019-01-23T01:50:21.758Z,26.63
2019-01-23T01:52:52.109Z,25.93
2019-01-23T01:55:22.432Z,25.80
2019-01-23T01:57:56.872Z,24.73
2019-01-23T02:00:27.546Z,26.57
2019-01-23T02:02:57.940Z,25.60
2019-01-23T02:05:28.610Z,23.73
2019-01-23T02:07:59.384Z,23.97
2019-01-23T02:10:30.019Z,24.23
2019-01-23T02:13:00.723Z,22.70
2019-01-23T02:15:31.229Z,23.73
2019-01-23T02:18:01.498Z,23.60
2019-01-23T02:20:32.231Z,22.93
2019-01-23T02:23:02.943Z,22.67
2019-01-23T02:25:33.312Z,22.53
2019-01-23T02:28:03.680Z,22.50
2019-01-23T02:30:34.242Z,24.00
2019-01-23T02:33:05.320Z,23.00
2019-01-23T02:35:35.661Z,24.03
2019-01-23T02:38:05.949Z,25.33
2019-01-23T02:40:36.376Z,24.03
2019-01-23T02:43:06.950Z,25.47
2019-01-23T02:45:37.228Z,24.90
2019-01-23T02:48:07.872Z,24.93
2019-01-23T02:50:38.187Z,24.90
2019-01-23T02:53:08.481Z,24.27
2019-01-23T02:55:38.747Z,23.90
2019-01-23T02:58:09.051Z,25.97
2019-01-23T03:00:39.317Z,26.43
2019-01-23T03:03:10.313Z,25.97
2019-01-23T03:05:40.904Z,25.73
2019-01-23T03:08:11.653Z,25.57
2019-01-23T03:10:42.039Z,26.60
2019-01-23T03:13:12.587Z,26.27
2019-01-23T03:15:55.339Z,24.13
2019-01-23T03:18:26.160Z,22.87
2019-01-23T03:20:56.487Z,22.70
2019-01-23T03:23:27.256Z,24.10
2019-01-23T03:25:57.898Z,23.73
2019-01-23T03:28:28.175Z,23.23
2019-01-23T03:30:58.847Z,22.00
2019-01-23T03:33:29.186Z,21.43
2019-01-23T03:35:59.788Z,21.30
2019-01-23T03:38:30.511Z,21.77
2019-01-23T03:41:00.948Z,21.47
2019-01-23T03:43:31.446Z,20.83
2019-01-23T03:46:02.410Z,21.53
2019-01-23T03:48:32.650Z,20.73
2019-01-23T03:51:03.482Z,21.70
2019-01-23T03:53:33.845Z,22.47
2019-01-23T03:56:04.521Z,21.67
2019-01-23T03:58:34.816Z,21.97
2019-01-23T04:01:05.172Z,22.20
2019-01-23T04:03:35.567Z,21.77
2019-01-23T04:06:06.282Z,21.57
2019-01-23T04:08:36.596Z,20.93
2019-01-23T04:11:07.451Z,22.03
2019-01-23T04:13:37.945Z,21.80
2019-01-23T04:16:08.452Z,21.80
2019-01-23T04:18:38.853Z,20.03
2019-01-23T04:21:09.030Z,21.13
2019-01-23T04:23:39.516Z,21.33
2019-01-23T04:26:09.780Z,21.13
2019-01-23T04:28:40.020Z,20.60
2019-01-23T04:31:10.925Z,20.93
2019-01-23T04:33:41.793Z,20.53
2019-01-23T04:36:12.076Z,20.00
2019-01-23T04:38:42.293Z,21.27
2019-01-23T04:41:12.668Z,20.70
2019-01-23T04:43:42.954Z,20.33
2019-01-23T04:46:13.611Z,21.13
2019-01-23T04:48:44.288Z,19.07
2019-01-23T04:51:39.527Z,20.10
2019-01-23T04:54:13.164Z,19.73
2019-01-23T04:56:43.332Z,18.93
2019-01-23T04:59:13.624Z,19.17
2019-01-23T05:01:43.742Z,18.93
2019-01-23T05:04:14.414Z,18.83
2019-01-23T05:06:44.856Z,19.57
2019-01-23T05:09:15.367Z,17.57
2019-01-23T05:11:45.665Z,19.03
2019-01-23T05:14:15.981Z,16.83
2019-01-23T05:16:46.550Z,19.23
2019-01-23T05:19:16.865Z,17.37
2019-01-23T05:21:47.702Z,18.90
2019-01-23T05:24:17.955Z,17.77
2019-01-23T05:26:48.246Z,17.63
2019-01-23T05:29:18.834Z,18.43
2019-01-23T05:31:49.048Z,17.70
2019-01-23T05:34:19.722Z,17.70
2019-01-23T05:36:49.942Z,17.77
2019-01-23T05:39:20.274Z,19.07
2019-01-23T05:41:50.894Z,19.87
2019-01-23T05:44:21.160Z,19.63
2019-01-23T05:46:51.353Z,18.07
2019-01-23T05:49:21.617Z,18.43
2019-01-23T05:51:51.806Z,20.07
2019-01-23T05:54:22.352Z,21.00
2019-01-23T05:56:52.623Z,19.90
2019-01-23T05:59:22.782Z,20.67
2019-01-23T06:01:53.472Z,19.93
2019-01-23T06:04:23.692Z,19.73
2019-01-23T06:06:53.960Z,21.03
2019-01-23T06:09:24.112Z,19.70
2019-01-23T06:11:54.728Z,20.60
2019-01-23T06:14:24.961Z,20.40
2019-01-23T06:16:55.336Z,18.73
2019-01-23T06:19:25.913Z,19.83
2019-01-23T06:21:56.219Z,21.27
2019-01-23T06:24:26.588Z,19.30
2019-01-23T06:26:56.895Z,21.50
2019-01-23T06:29:27.144Z,20.77
2019-01-23T06:31:57.419Z,20.33
2019-01-23T06:34:27.745Z,19.90
2019-01-23T06:36:58.403Z,21.93
2019-01-23T06:39:28.984Z,22.27
2019-01-23T06:41:59.663Z,24.70
2019-01-23T06:44:29.946Z,23.90
2019-01-23T06:47:00.497Z,24.30
2019-01-23T06:49:30.698Z,23.93
2019-01-23T06:52:01.274Z,24.17
2019-01-23T06:54:31.491Z,24.43
2019-01-23T06:57:02.659Z,24.80
2019-01-23T06:59:32.887Z,24.83
2019-01-23T07:02:03.131Z,26.00
2019-01-23T07:04:33.371Z,25.87
2019-01-23T07:07:03.685Z,24.57
2019-01-23T07:09:34.185Z,25.93
2019-01-23T07:12:04.542Z,26.70
2019-01-23T07:14:34.809Z,24.80
2019-01-23T07:17:05.446Z,25.80
2019-01-23T07:19:35.766Z,25.37
2019-01-23T07:22:06.277Z,26.27
2019-01-23T07:24:36.632Z,25.03
2019-01-23T07:27:07.048Z,24.77
2019-01-23T07:29:37.456Z,24.70
2019-01-23T07:32:07.869Z,25.93
2019-01-23T07:34:38.864Z,26.83
2019-01-23T07:37:09.083Z,25.60
2019-01-23T07:39:39.849Z,25.47
2019-01-23T07:42:10.608Z,24.10
2019-01-23T07:44:40.892Z,23.77
2019-01-23T07:47:11.306Z,24.63
2019-01-23T07:49:41.691Z,23.97
2019-01-23T07:52:12.318Z,24.73
2019-01-23T07:54:43.184Z,23.90
2019-01-23T07:57:13.814Z,26.00
2019-01-23T07:59:44.186Z,26.30
2019-01-23T08:02:15.034Z,26.90
2019-01-23T08:04:45.522Z,25.60
2019-01-23T08:07:16.152Z,25.53
2019-01-23T08:09:46.450Z,27.60
2019-01-23T08:12:16.814Z,26.23
2019-01-23T08:14:47.080Z,26.10
2019-01-23T08:17:17.398Z,25.83
2019-01-23T08:19:48.145Z,23.90
2019-01-23T08:22:18.488Z,25.30
2019-01-23T08:24:48.839Z,24.97
2019-01-23T08:27:19.338Z,23.93
2019-01-23T08:29:49.942Z,24.57
2019-01-23T08:32:20.609Z,24.67
2019-01-23T08:34:51.632Z,25.60
2019-01-23T08:37:22.121Z,23.37
2019-01-23T08:39:52.423Z,23.57
2019-01-23T08:42:22.764Z,23.37
2019-01-23T08:44:53.257Z,23.17
2019-01-23T08:47:23.773Z,23.00
2019-01-23T08:49:54.414Z,22.23
2019-01-23T08:52:24.743Z,23.53
2019-01-23T08:54:55.973Z,21.50
2019-01-23T08:57:26.271Z,22.57
2019-01-23T08:59:56.582Z,23.30
2019-01-23T09:02:27.797Z,21.80
2019-01-23T09:04:58.190Z,21.77
2019-01-23T09:07:28.765Z,21.17
2019-01-23T09:09:59.431Z,23.23
2019-01-23T09:12:29.663Z,21.47
2019-01-23T09:15:00.577Z,21.93
2019-01-23T09:17:30.800Z,21.50
2019-01-23T09:20:01.435Z,22.50
2019-01-23T09:22:31.787Z,21.97
2019-01-23T09:25:03.075Z,21.43
2019-01-23T09:27:33.385Z,21.57
2019-01-23T09:30:05.188Z,20.90
2019-01-23T09:33:23.824Z,22.50
2019-01-23T09:36:35.053Z,20.50
2019-01-23T09:39:58.878Z,19.87
2019-01-23T09:43:17.230Z,19.53
2019-01-23T09:46:22.722Z,18.77
2019-01-23T09:49:34.157Z,19.10
2019-01-23T09:52:45.642Z,18.77
2019-01-23T09:55:16.162Z,18.73
2019-01-23T09:57:50.102Z,20.10
2019-01-23T10:00:23.471Z,19.43
2019-01-23T10:02:53.884Z,20.10
2019-01-23T10:05:24.541Z,19.73
2019-01-23T10:07:55.218Z,18.80
2019-01-23T10:10:25.509Z,18.93
2019-01-23T10:12:55.870Z,19.83
2019-01-23T10:15:38.825Z,19.53
2019-01-23T10:18:09.159Z,18.93
2019-01-23T10:20:39.969Z,18.80
2019-01-23T10:23:10.414Z,18.17
2019-01-23T10:25:40.951Z,18.87
2019-01-23T10:28:11.457Z,18.90
2019-01-23T10:30:41.865Z,19.07
2019-01-23T10:33:12.169Z,18.87
2019-01-23T10:35:42.535Z,18.20
2019-01-23T10:38:13.045Z,18.43
2019-01-23T10:40:43.697Z,18.80
2019-01-23T10:43:14.129Z,18.40
2019-01-23T10:45:44.536Z,18.10
2019-01-23T10:48:15.225Z,18.40
2019-01-23T10:50:45.593Z,20.27
2019-01-23T10:53:16.203Z,19.60
2019-01-23T10:55:46.571Z,19.37
2019-01-23T10:58:16.837Z,19.57
2019-01-23T11:00:47.194Z,19.87
2019-01-23T11:03:18.057Z,18.53
2019-01-23T11:05:49.890Z,19.60
2019-01-23T11:08:20.497Z,19.33
2019-01-23T11:10:50.731Z,18.73
2019-01-23T11:13:21.198Z,19.63
2019-01-23T11:15:51.442Z,21.17
2019-01-23T11:18:21.787Z,21.03
2019-01-23T11:20:52.204Z,19.90
2019-01-23T11:23:23.309Z,21.13
2019-01-23T11:25:54.422Z,20.43
2019-01-23T11:28:25.030Z,21.67
2019-01-23T11:30:55.390Z,21.30
2019-01-23T11:33:25.947Z,21.47
2019-01-23T11:35:56.728Z,20.80
2019-01-23T11:38:27.078Z,21.03
2019-01-23T11:40:57.900Z,22.23
2019-01-23T11:43:28.400Z,21.40
2019-01-23T11:45:59.226Z,21.50
2019-01-23T11:48:30.399Z,20.77
2019-01-23T11:51:00.738Z,21.50
2019-01-23T11:53:31.354Z,22.10
2019-01-23T11:56:01.700Z,21.13
2019-01-23T11:58:31.981Z,22.47
2019-01-23T12:01:03.376Z,22.40
2019-01-23T12:03:33.632Z,21.33
2019-01-23T12:06:04.104Z,22.60
2019-01-23T12:08:34.758Z,23.63
2019-01-23T12:11:05.338Z,22.40
2019-01-23T12:13:36.236Z,22.67
2019-01-23T12:16:07.298Z,22.63
2019-01-23T12:18:38.126Z,23.20
2019-01-23T12:21:09.400Z,23.92
2019-01-23T12:23:40.488Z,24.93
2019-01-23T12:26:10.880Z,24.67
2019-01-23T12:28:41.232Z,24.13
2019-01-23T12:31:11.922Z,23.10
2019-01-23T12:33:42.201Z,22.03
2019-01-23T12:36:12.623Z,23.57
2019-01-23T12:38:43.899Z,23.37
2019-01-23T12:41:14.696Z,23.53
2019-01-23T12:43:45.170Z,23.80
2019-01-23T12:46:16.066Z,23.27
2019-01-23T12:48:46.355Z,23.30
2019-01-23T12:51:19.093Z,23.87
2019-01-23T12:53:49.555Z,25.17
2019-01-23T12:56:19.918Z,24.57
2019-01-23T12:58:50.386Z,24.43
2019-01-23T13:01:20.780Z,24.67
2019-01-23T13:03:51.791Z,26.07
2019-01-23T13:06:22.539Z,26.10
2019-01-23T13:08:53.147Z,23.63
2019-01-23T13:11:23.480Z,24.93
2019-01-23T13:13:53.860Z,25.07
2019-01-23T13:16:24.677Z,26.20
2019-01-23T13:18:55.799Z,25.40
2019-01-23T13:21:26.215Z,26.07
2019-01-23T13:23:56.794Z,24.10
2019-01-23T13:26:27.953Z,25.77
2019-01-23T13:28:58.428Z,25.33
2019-01-23T13:31:29.348Z,25.03
2019-01-23T13:34:00.057Z,24.57
2019-01-23T13:36:30.522Z,23.87
2019-01-23T13:39:00.926Z,24.70
2019-01-23T13:41:31.339Z,25.63
2019-01-23T13:44:01.672Z,24.47
2019-01-23T13:46:32.173Z,25.13
2019-01-23T13:49:02.919Z,25.67
2019-01-23T13:51:33.425Z,25.47
2019-01-23T13:54:04.763Z,26.60
2019-01-23T13:56:35.231Z,24.17
2019-01-23T13:59:05.601Z,27.07
2019-01-23T14:01:36.768Z,26.10
2019-01-23T14:04:07.982Z,26.33
2019-01-23T14:06:38.581Z,28.03
2019-01-23T14:09:08.966Z,27.87
2019-01-23T14:11:39.396Z,26.47
2019-01-23T14:14:09.832Z,26.80
2019-01-23T14:16:41.119Z,25.03
2019-01-23T14:19:11.554Z,26.70
2019-01-23T14:21:42.145Z,27.93
2019-01-23T14:24:12.818Z,26.47
2019-01-23T14:26:43.280Z,27.70
2019-01-23T14:29:13.781Z,25.83
2019-01-23T14:31:44.166Z,28.30
2019-01-23T14:34:15.016Z,28.80
2019-01-23T14:36:45.532Z,28.77
2019-01-23T14:39:15.908Z,27.57
2019-01-23T14:41:46.188Z,28.33
2019-01-23T14:44:16.591Z,29.93
2019-01-23T14:46:47.556Z,29.13
2019-01-23T14:49:17.915Z,27.17
2019-01-23T14:51:48.294Z,29.70
2019-01-23T14:54:18.681Z,27.93
2019-01-23T14:56:49.278Z,29.40
2019-01-23T14:59:20.603Z,29.67
2019-01-23T15:01:51.016Z,30.23
2019-01-23T15:04:21.398Z,30.57
2019-01-23T15:06:51.616Z,28.97
2019-01-23T15:09:21.913Z,30.77
2019-01-23T15:11:52.356Z,29.00
2019-01-23T15:14:22.980Z,28.73
2019-01-23T15:16:53.665Z,29.20
2019-01-23T15:19:23.975Z,31.63
2019-01-23T15:21:54.700Z,30.13
2019-01-23T15:24:24.967Z,31.43
2019-01-23T15:26:55.281Z,31.80
2019-01-23T15:29:25.674Z,31.10
2019-01-23T15:31:56.027Z,32.20
2019-01-23T15:34:26.888Z,32.73
2019-01-23T15:36:57.281Z,32.13
2019-01-23T15:39:29.017Z,30.73
2019-01-23T15:41:59.357Z,30.27
2019-01-23T15:44:29.978Z,31.30
2019-01-23T15:47:00.601Z,32.93
2019-01-23T15:49:30.864Z,30.33
2019-01-23T15:52:01.655Z,31.03
2019-01-23T15:54:32.263Z,30.27
2019-01-23T15:57:03.522Z,30.40
2019-01-23T15:59:34.103Z,30.70
2019-01-23T16:02:04.713Z,30.07
2019-01-23T16:04:35.405Z,29.23
2019-01-23T16:07:06.189Z,30.33
2019-01-23T16:09:36.547Z,30.30
2019-01-23T16:12:06.912Z,30.53
2019-01-23T16:14:37.369Z,31.33
2019-01-23T16:17:07.913Z,30.93
2019-01-23T16:19:39.339Z,28.80
2019-01-23T16:22:09.588Z,31.20
2019-01-23T16:24:40.170Z,31.17
2019-01-23T16:27:10.338Z,31.70
2019-01-23T16:29:40.795Z,30.47
2019-01-23T16:32:11.550Z,32.43
2019-01-23T16:34:42.490Z,29.93
2019-01-23T16:37:12.798Z,31.33
2019-01-23T16:39:43.427Z,32.10
2019-01-23T16:42:13.687Z,31.10
2019-01-23T16:44:43.969Z,30.63
2019-01-23T16:47:14.245Z,29.30
2019-01-23T16:49:44.866Z,31.47
2019-01-23T16:52:15.272Z,30.33
2019-01-23T16:54:45.510Z,29.40
2019-01-23T16:57:15.786Z,30.47
2019-01-23T16:59:46.379Z,29.43
2019-01-23T17:02:16.629Z,31.80
2019-01-23T17:04:46.871Z,29.67
2019-01-23T17:07:17.450Z,30.67
2019-01-23T17:09:47.675Z,29.10
2019-01-23T17:12:17.893Z,31.57
2019-01-23T17:14:48.144Z,31.27
2019-01-23T17:17:18.409Z,30.35
2019-01-23T17:19:48.757Z,29.07
2019-01-23T17:22:19.999Z,28.07
2019-01-23T17:24:51.125Z,30.40
2019-01-23T17:27:21.699Z,30.67
2019-01-23T17:29:52.597Z,28.20
2019-01-23T17:32:23.211Z,28.90
2019-01-23T17:34:53.521Z,27.47
2019-01-23T17:37:23.960Z,30.23
2019-01-23T17:39:55.127Z,28.20
2019-01-23T17:42:25.907Z,27.67
2019-01-23T17:44:56.296Z,28.37
2019-01-23T17:47:27.061Z,26.00
2019-01-23T17:49:57.767Z,27.30
2019-01-23T17:52:28.171Z,26.70
2019-01-23T17:54:58.706Z,27.30
2019-01-23T17:57:28.933Z,29.33
2019-01-23T17:59:59.093Z,28.83
2019-01-23T18:02:29.391Z,29.67
2019-01-23T18:04:59.604Z,26.10
2019-01-23T18:07:29.884Z,30.43
2019-01-23T18:10:00.090Z,27.13
2019-01-23T18:12:30.375Z,31.20
2019-01-23T18:15:00.707Z,32.83
2019-01-23T18:17:30.907Z,31.23
2019-01-23T18:20:01.465Z,28.70
2019-01-23T18:22:31.611Z,31.27
2019-01-23T18:25:01.697Z,28.13
2019-01-23T18:27:33.397Z,28.87
2019-01-23T18:30:03.633Z,28.87
2019-01-23T18:32:33.867Z,30.53
2019-01-23T18:35:57.566Z,28.60
2019-01-23T18:38:41.219Z,26.40
2019-01-23T18:41:41.179Z,28.27
2019-01-23T18:44:51.957Z,26.87
2019-01-23T18:47:57.145Z,24.93
2019-01-23T18:51:13.472Z,27.13
2019-01-23T18:53:43.678Z,27.70
2019-01-23T18:56:14.259Z,29.73
2019-01-23T18:58:44.434Z,27.73
2019-01-23T19:01:14.647Z,24.53
2019-01-23T19:03:44.875Z,26.13
2019-01-23T19:06:15.166Z,25.97
2019-01-23T19:08:45.438Z,36.77
2019-01-23T19:11:16.255Z,33.40
2019-01-23T19:13:46.457Z,38.40
2019-01-23T19:16:17.061Z,35.27
2019-01-23T19:18:47.297Z,35.70
2019-01-23T19:21:17.547Z,36.23
2019-01-23T19:23:47.815Z,34.57
2019-01-23T19:26:18.107Z,31.13
2019-01-23T19:28:48.999Z,31.50
2019-01-23T19:31:19.180Z,30.00
2019-01-23T19:33:49.850Z,32.70
2019-01-23T19:36:20.059Z,29.93
2019-01-23T19:38:50.669Z,29.93
2019-01-23T19:41:20.928Z,34.37
2019-01-23T19:43:51.221Z,32.53
2019-01-23T19:46:21.439Z,33.47
2019-01-23T19:48:51.632Z,32.47
2019-01-23T19:51:21.837Z,31.17
2019-01-23T19:53:52.051Z,34.13
2019-01-23T19:56:22.288Z,33.73
2019-01-23T19:58:52.578Z,34.00
2019-01-23T20:01:22.774Z,33.03
2019-01-23T20:03:53.004Z,31.60
2019-01-23T20:06:23.314Z,31.50
2019-01-23T20:08:53.513Z,33.20
2019-01-23T20:11:24.359Z,31.30
2019-01-23T20:13:54.607Z,30.87
2019-01-23T20:16:25.161Z,32.27
2019-01-23T20:18:55.355Z,29.97
2019-01-23T20:21:25.584Z,31.00
2019-01-23T20:23:56.190Z,30.27
2019-01-23T20:26:26.688Z,30.77
2019-01-23T20:28:56.907Z,32.47
2019-01-23T20:31:27.153Z,28.30
2019-01-23T20:33:57.517Z,32.17
2019-01-23T20:36:27.722Z,29.63
2019-01-23T20:38:58.626Z,29.20
2019-01-23T20:41:29.566Z,29.10
2019-01-23T20:43:59.950Z,28.60
2019-01-23T20:46:30.208Z,29.70
2019-01-23T20:49:00.408Z,30.67
2019-01-23T20:51:30.894Z,30.97
2019-01-23T20:54:01.442Z,28.70
2019-01-23T20:56:31.961Z,28.67
2019-01-23T20:59:03.016Z,30.83
2019-01-23T21:01:33.264Z,28.70
2019-01-23T21:04:03.445Z,30.30
2019-01-23T21:06:33.681Z,29.60
2019-01-23T21:09:05.693Z,27.83
2019-01-23T21:11:35.948Z,32.17
2019-01-23T21:14:06.808Z,32.77
2019-01-23T21:16:36.998Z,32.17
2019-01-23T21:19:07.232Z,34.43
2019-01-23T21:21:37.427Z,32.80
2019-01-23T21:24:07.655Z,35.67
2019-01-23T21:26:37.900Z,34.87
2019-01-23T21:29:08.441Z,36.23
2019-01-23T21:31:38.722Z,33.77
2019-01-23T21:34:09.175Z,34.77
2019-01-23T21:36:39.898Z,34.30
2019-01-23T21:39:10.809Z,33.30
2019-01-23T21:41:41.025Z,32.80
2019-01-23T21:44:11.253Z,33.03
2019-01-23T21:46:41.457Z,34.83
2019-01-23T21:49:12.021Z,36.87
2019-01-23T21:51:42.573Z,36.77
2019-01-23T21:54:13.145Z,36.13
2019-01-23T21:56:43.269Z,35.90
2019-01-23T21:59:13.506Z,35.33
2019-01-23T22:01:43.637Z,30.87
2019-01-23T22:04:14.142Z,35.03
2019-01-23T22:06:44.339Z,33.53
2019-01-23T22:09:14.481Z,33.23
2019-01-23T22:11:44.683Z,35.77
2019-01-23T22:14:14.864Z,35.83
2019-01-23T22:16:45.067Z,35.67
2019-01-23T22:19:15.619Z,33.13
2019-01-23T22:21:46.199Z,32.67
2019-01-23T22:24:16.719Z,33.70
2019-01-23T22:26:46.952Z,32.77
2019-01-23T22:29:17.473Z,32.20
2019-01-23T22:31:47.659Z,33.00
2019-01-23T22:34:17.859Z,32.40
2019-01-23T22:36:48.062Z,32.17
2019-01-23T22:39:18.267Z,32.20
2019-01-23T22:41:48.615Z,32.20
2019-01-23T22:44:18.806Z,30.70
2019-01-23T22:46:49.324Z,33.03
2019-01-23T22:49:19.827Z,32.07
2019-01-23T22:51:50.349Z,33.60
2019-01-23T22:54:20.911Z,31.53
2019-01-23T22:56:51.116Z,31.30
2019-01-23T22:59:21.364Z,30.47
2019-01-23T23:01:51.592Z,30.40
2019-01-23T23:04:21.802Z,28.07
2019-01-23T23:06:52.312Z,28.37
2019-01-23T23:09:22.740Z,27.53
2019-01-23T23:11:53.010Z,32.17
2019-01-23T23:14:23.542Z,30.20
2019-01-23T23:16:54.060Z,32.80
2019-01-23T23:19:24.276Z,35.20
2019-01-23T23:21:54.789Z,35.37
2019-01-23T23:24:25.672Z,37.07
2019-01-23T23:26:55.878Z,36.70
2019-01-23T23:29:26.014Z,34.23
2019-01-23T23:31:56.230Z,31.13
2019-01-23T23:34:26.424Z,27.87
2019-01-23T23:36:56.554Z,29.13
2019-01-23T23:39:26.699Z,27.87
2019-01-23T23:41:57.877Z,26.37
2019-01-23T23:44:28.082Z,27.53
2019-01-23T23:46:58.313Z,26.30
2019-01-23T23:49:28.433Z,29.37
2019-01-23T23:51:58.986Z,26.93
2019-01-23T23:54:29.175Z,25.93
2019-01-23T23:56:59.313Z,26.00
2019-01-23T23:59:29.867Z,28.40
